Terminal Aerodrome Forecast
Issued by NWS Sioux Falls, SD

Home | Current Version | Previous Version | Text Only | Print | Product List | Glossary On
Versions: 1 2 3 4 5 6 7 8 9 10 11 12
000
FTUS43 KFSD 171700
TAFSUX
TAF
KSUX 171734Z 1718/1818 03008KT P6SM FEW200
     FM172100 08004KT P6SM FEW120
     FM180200 10006KT P6SM BKN100
     FM180900 13010KT P6SM OVC090
     FM181600 15017G27KT P6SM BKN080=

USA.gov is the U.S. government's official web portal to all federal, state and local government web resources and services.